createdAt,value
2022-11-21T00:04:58.123Z,68.12
2022-11-21T00:10:01.180Z,68.18
2022-11-21T00:15:05.444Z,68.49
2022-11-21T00:20:08.798Z,68.73
2022-11-21T00:25:12.831Z,68.60
2022-11-21T00:30:15.945Z,68.48
2022-11-21T00:35:19.114Z,68.54
2022-11-21T00:40:22.134Z,68.59
2022-11-21T00:45:25.052Z,68.52
2022-11-21T00:50:27.974Z,68.49
2022-11-21T00:55:31.160Z,68.83
2022-11-21T01:00:34.270Z,68.69
2022-11-21T01:05:37.307Z,68.43
2022-11-21T01:10:40.222Z,68.37
2022-11-21T01:15:43.140Z,68.48
2022-11-21T01:20:46.080Z,68.38
2022-11-21T01:25:48.980Z,68.36
2022-11-21T01:30:51.931Z,68.38
2022-11-21T01:35:54.907Z,68.28
2022-11-21T01:40:57.784Z,68.74
2022-11-21T01:46:04.180Z,68.39
2022-11-21T01:51:18.559Z,68.26
2022-11-21T01:56:22.511Z,68.47
2022-11-21T02:01:25.529Z,69.05
2022-11-21T02:06:29.577Z,68.93
2022-11-21T02:11:35.319Z,68.82
2022-11-21T02:16:38.983Z,68.91
2022-11-21T02:21:49.868Z,68.88
2022-11-21T02:26:52.792Z,68.83
2022-11-21T02:32:00.225Z,68.80
2022-11-21T02:37:03.496Z,68.85
2022-11-21T02:42:18.572Z,68.58
2022-11-21T02:47:23.695Z,68.33
2022-11-21T02:52:27.268Z,68.20
2022-11-21T02:57:30.179Z,67.91
2022-11-21T03:02:33.105Z,68.03
2022-11-21T03:07:36.142Z,67.90
2022-11-21T03:12:41.128Z,67.67
2022-11-21T03:17:44.111Z,67.60
2022-11-21T03:22:47.095Z,67.60
2022-11-21T03:27:54.498Z,67.55
2022-11-21T03:32:58.020Z,67.62
2022-11-21T03:38:01.144Z,67.30
2022-11-21T03:43:08.024Z,67.41
2022-11-21T03:48:10.934Z,67.35
2022-11-21T03:53:13.877Z,67.52
2022-11-21T03:58:16.777Z,67.53
2022-11-21T04:03:19.694Z,67.64
2022-11-21T04:08:22.727Z,67.57
2022-11-21T04:13:25.831Z,67.59
2022-11-21T04:18:29.020Z,67.49
2022-11-21T04:23:32.367Z,67.69
2022-11-21T04:28:35.405Z,68.51
2022-11-21T04:33:39.343Z,68.61
2022-11-21T04:38:42.420Z,68.03
2022-11-21T04:43:45.359Z,67.60
2022-11-21T04:48:48.344Z,67.27
2022-11-21T04:53:51.252Z,67.32
2022-11-21T04:58:54.280Z,67.55
2022-11-21T05:03:57.224Z,66.26
2022-11-21T05:09:00.181Z,66.40
2022-11-21T05:14:03.337Z,67.00
2022-11-21T05:19:07.700Z,66.36
2022-11-21T05:24:10.881Z,66.36
2022-11-21T05:29:13.963Z,66.29
2022-11-21T05:34:16.969Z,66.47
2022-11-21T05:39:19.996Z,66.61
2022-11-21T05:44:22.950Z,66.75
2022-11-21T05:49:25.978Z,66.79
2022-11-21T05:54:29.175Z,67.00
2022-11-21T05:59:32.294Z,67.80
2022-11-21T06:04:35.324Z,67.09
2022-11-21T06:09:38.403Z,66.74
2022-11-21T06:14:41.316Z,66.63
2022-11-21T06:19:44.280Z,66.74
2022-11-21T06:24:47.232Z,66.95
2022-11-21T06:29:50.177Z,67.24
2022-11-21T06:34:53.186Z,67.98
2022-11-21T06:39:56.217Z,68.54
2022-11-21T06:44:59.130Z,67.58
2022-11-21T06:50:02.147Z,67.29
2022-11-21T06:55:05.506Z,68.28
2022-11-21T07:00:08.975Z,67.91
2022-11-21T07:05:11.998Z,67.74
2022-11-21T07:10:15.023Z,67.96
2022-11-21T07:15:17.920Z,68.22
2022-11-21T07:20:20.873Z,68.19
2022-11-21T07:25:23.884Z,68.36
2022-11-21T07:30:27.584Z,68.50
2022-11-21T07:35:30.561Z,68.48
2022-11-21T07:40:34.861Z,68.42
2022-11-21T07:45:38.474Z,68.56
2022-11-21T07:50:41.468Z,68.78
2022-11-21T07:55:44.391Z,68.97
2022-11-21T08:00:47.356Z,69.19
2022-11-21T08:05:50.290Z,69.30
2022-11-21T08:10:53.207Z,69.33
2022-11-21T08:15:56.113Z,69.71
2022-11-21T08:21:01.559Z,69.63
2022-11-21T08:26:04.601Z,69.77
2022-11-21T08:31:07.568Z,69.37
2022-11-21T08:36:10.778Z,69.29
2022-11-21T08:41:32.238Z,69.24
2022-11-21T08:46:37.383Z,68.88
2022-11-21T08:51:40.304Z,68.99
2022-11-21T08:56:44.110Z,68.64
2022-11-21T09:01:47.140Z,68.70
2022-11-21T09:06:50.174Z,68.51
2022-11-21T09:11:53.108Z,68.45
2022-11-21T09:17:15.613Z,68.88
2022-11-21T09:22:18.571Z,68.35
2022-11-21T09:27:21.514Z,68.50
2022-11-21T09:32:24.487Z,68.78
2022-11-21T09:37:27.751Z,68.09
2022-11-21T09:43:07.600Z,67.93
2022-11-21T09:48:28.022Z,67.30
2022-11-21T09:53:37.790Z,67.01
2022-11-21T09:58:57.948Z,66.86
2022-11-21T10:04:02.427Z,66.91
2022-11-21T10:09:25.595Z,67.05
2022-11-21T10:14:44.985Z,67.27
2022-11-21T10:20:09.545Z,67.18
2022-11-21T10:25:26.919Z,67.38
2022-11-21T10:30:30.699Z,67.67
2022-11-21T10:35:44.238Z,67.58
2022-11-21T10:41:07.675Z,67.38
2022-11-21T10:46:10.802Z,67.15
2022-11-21T10:51:23.242Z,67.28
2022-11-21T10:56:28.036Z,67.73
2022-11-21T11:01:34.141Z,67.66
2022-11-21T11:06:38.595Z,66.96
2022-11-21T11:11:41.538Z,66.82
2022-11-21T11:16:47.044Z,66.60
2022-11-21T11:21:50.904Z,66.17
2022-11-21T11:27:02.855Z,66.34
2022-11-21T11:32:21.588Z,66.36
2022-11-21T11:37:47.255Z,66.47
2022-11-21T11:43:29.935Z,66.63
2022-11-21T11:49:03.271Z,66.45
2022-11-21T11:54:11.333Z,66.64
2022-11-21T11:59:22.819Z,66.81
2022-11-21T12:04:33.997Z,66.70
2022-11-21T12:09:57.498Z,67.08
2022-11-21T12:15:21.726Z,67.19
2022-11-21T12:20:31.711Z,66.91
2022-11-21T12:25:41.107Z,66.87
2022-11-21T12:31:00.199Z,66.78
2022-11-21T12:36:31.409Z,66.65
2022-11-21T12:42:12.843Z,66.68
2022-11-21T12:48:18.038Z,66.71
2022-11-21T12:53:58.147Z,66.72
2022-11-21T12:59:04.564Z,66.93
2022-11-21T13:04:17.453Z,66.98
2022-11-21T13:09:23.480Z,67.06
2022-11-21T13:14:48.217Z,66.88
2022-11-21T13:20:17.390Z,67.01
2022-11-21T13:25:32.381Z,67.27
2022-11-21T13:30:46.037Z,67.45
2022-11-21T13:35:51.530Z,67.41
2022-11-21T13:41:13.227Z,67.53
2022-11-21T13:46:56.334Z,67.36
2022-11-21T13:52:07.073Z,68.02
2022-11-21T13:57:10.228Z,67.16
2022-11-21T14:02:51.911Z,66.60
2022-11-21T14:08:20.790Z,66.64
2022-11-21T14:13:32.837Z,66.79
2022-11-21T14:18:38.343Z,67.12
2022-11-21T14:23:44.444Z,66.74
2022-11-21T14:28:48.104Z,66.80
2022-11-21T14:33:57.285Z,67.10
2022-11-21T14:39:36.889Z,66.87
2022-11-21T14:44:29.498Z,67.43
2022-11-21T14:49:32.532Z,67.59
2022-11-21T14:55:06.088Z,67.97
2022-11-21T15:00:36.044Z,68.02
2022-11-21T15:06:08.804Z,67.96
2022-11-21T15:11:03.477Z,68.05
2022-11-21T15:16:06.611Z,67.98
2022-11-21T15:21:15.960Z,67.97
2022-11-21T15:26:33.158Z,68.16
2022-11-21T15:31:36.228Z,68.07
2022-11-21T15:36:39.289Z,67.73
2022-11-21T15:41:42.369Z,67.93
2022-11-21T15:46:47.120Z,68.27
2022-11-21T15:52:06.536Z,68.41
2022-11-21T15:57:16.743Z,68.56
2022-11-21T16:02:20.410Z,68.95
2022-11-21T16:07:23.471Z,68.78
2022-11-21T16:12:26.352Z,68.83
2022-11-21T16:17:29.352Z,69.22
2022-11-21T16:22:32.438Z,69.02
2022-11-21T16:27:35.435Z,68.94
2022-11-21T16:32:38.486Z,68.83
2022-11-21T16:37:41.501Z,68.70
2022-11-21T16:42:44.501Z,68.85
2022-11-21T16:47:48.956Z,68.68
2022-11-21T16:52:54.328Z,69.13
2022-11-21T16:58:00.265Z,69.12
2022-11-21T17:03:03.700Z,69.07
2022-11-21T17:08:07.095Z,68.89
2022-11-21T17:13:10.041Z,69.27
2022-11-21T17:18:12.997Z,69.09
2022-11-21T17:23:15.955Z,68.70
2022-11-21T17:28:18.861Z,68.32
2022-11-21T17:33:22.032Z,68.26
2022-11-21T17:38:24.987Z,68.22
2022-11-21T17:43:28.968Z,68.04
2022-11-21T17:48:34.151Z,68.27
2022-11-21T17:53:40.053Z,68.39
2022-11-21T17:58:43.317Z,68.35
2022-11-21T18:03:57.521Z,68.46
2022-11-21T18:09:00.714Z,68.41
2022-11-21T18:14:04.986Z,68.72
2022-11-21T18:19:12.979Z,68.77
2022-11-21T18:24:16.112Z,68.74
2022-11-21T18:34:42.079Z,68.33
2022-11-21T18:39:45.023Z,68.16
2022-11-21T18:44:48.103Z,68.48
2022-11-21T18:49:51.121Z,68.50
2022-11-21T18:54:54.078Z,68.65
2022-11-21T18:59:57.105Z,68.60
2022-11-21T19:05:00.157Z,69.02
2022-11-21T19:10:35.191Z,68.96
2022-11-21T19:15:26.386Z,69.25
2022-11-21T19:20:29.319Z,69.18
2022-11-21T19:25:32.922Z,68.91
2022-11-21T19:30:36.468Z,68.44
2022-11-21T19:35:40.386Z,68.72
2022-11-21T19:41:02.195Z,68.51
2022-11-21T19:46:05.330Z,68.30
2022-11-21T19:51:09.046Z,68.23
2022-11-21T19:56:14.123Z,68.28
2022-11-21T20:01:20.814Z,68.44
2022-11-21T20:06:32.874Z,68.74
2022-11-21T20:11:38.427Z,68.99
2022-11-21T20:16:46.875Z,69.06
2022-11-21T20:21:50.321Z,69.06
2022-11-21T20:26:53.939Z,68.86
2022-11-21T20:31:59.357Z,68.59
2022-11-21T20:37:03.300Z,68.92
2022-11-21T20:42:06.929Z,68.48
2022-11-21T20:47:10.372Z,68.44
2022-11-21T20:57:36.257Z,68.57
2022-11-21T21:02:39.299Z,68.89
2022-11-21T21:07:42.340Z,69.18
2022-11-21T21:12:48.603Z,69.56
2022-11-21T21:17:51.764Z,69.63
2022-11-21T21:22:55.756Z,69.96
2022-11-21T21:27:58.812Z,69.56
2022-11-21T21:33:01.937Z,69.61
2022-11-21T21:38:08.795Z,69.62
2022-11-21T21:43:12.106Z,69.60
2022-11-21T21:48:15.411Z,69.88
2022-11-21T21:53:18.382Z,69.36
2022-11-21T21:58:21.355Z,69.53
2022-11-21T22:03:24.304Z,69.49
2022-11-21T22:08:27.373Z,69.59
2022-11-21T22:13:30.350Z,69.68
2022-11-21T22:18:33.293Z,69.78
2022-11-21T22:23:36.199Z,69.94
2022-11-21T22:28:40.443Z,69.68
2022-11-21T22:33:44.392Z,69.82
2022-11-21T22:38:47.941Z,69.39
2022-11-21T22:43:56.273Z,69.65
2022-11-21T22:48:59.587Z,69.66
2022-11-21T22:54:02.696Z,69.41
2022-11-21T22:59:05.826Z,69.39
2022-11-21T23:04:12.057Z,69.18
2022-11-21T23:09:19.385Z,68.97
2022-11-21T23:14:22.349Z,68.99
2022-11-21T23:19:25.344Z,68.98
2022-11-21T23:24:28.234Z,68.84
2022-11-21T23:29:31.596Z,68.81
2022-11-21T23:34:34.756Z,68.26
2022-11-21T23:39:37.650Z,68.29
2022-11-21T23:44:40.568Z,68.50
2022-11-21T23:49:47.394Z,68.15
2022-11-21T23:54:53.007Z,68.24
2022-11-21T23:59:56.194Z,68.10
